sensor_id;sensor_type;location;lat;lon;timestamp;pressure;altitude;pressure_sealevel;temperature;humidity
34712;BME280;20941;42.408;25.634;2022-07-29T06:37:10;99570.63;;;28.47;38.22
34712;BME280;20941;42.408;25.634;2022-07-29T06:39:38;99579.69;;;28.49;36.96
34712;BME280;20941;42.408;25.634;2022-07-29T06:42:04;99571.59;;;28.37;37.27
34712;BME280;20941;42.408;25.634;2022-07-29T06:44:30;99571.97;;;28.39;38.04
34712;BME280;20941;42.408;25.634;2022-07-29T06:46:56;99572.91;;;28.32;38.16
34712;BME280;20941;42.408;25.634;2022-07-29T06:49:22;99547.06;;;28.17;38.60
34712;BME280;20941;42.408;25.634;2022-07-29T06:51:49;99563.81;;;28.30;38.94
34712;BME280;20941;42.408;25.634;2022-07-29T06:54:14;99589.53;;;28.55;38.14
34712;BME280;20941;42.408;25.634;2022-07-29T06:56:40;99565.72;;;28.44;37.70
34712;BME280;20941;42.408;25.634;2022-07-29T06:59:07;99583.66;;;28.62;37.59
34712;BME280;20941;42.408;25.634;2022-07-29T07:01:33;99587.72;;;28.69;37.84
34712;BME280;20941;42.408;25.634;2022-07-29T07:04:00;99594.38;;;28.62;38.34
34712;BME280;20941;42.408;25.634;2022-07-29T07:06:26;99568.97;;;28.46;38.21
34712;BME280;20941;42.408;25.634;2022-07-29T07:08:51;99571.28;;;28.58;38.38
34712;BME280;20941;42.408;25.634;2022-07-29T07:11:17;99576.00;;;28.79;38.50
34712;BME280;20941;42.408;25.634;2022-07-29T07:13:42;99569.63;;;28.92;37.47
34712;BME280;20941;42.408;25.634;2022-07-29T07:16:09;99569.19;;;28.93;37.92
34712;BME280;20941;42.408;25.634;2022-07-29T07:18:34;99580.94;;;29.10;37.05
34712;BME280;20941;42.408;25.634;2022-07-29T07:21:00;99570.22;;;29.07;36.98
34712;BME280;20941;42.408;25.634;2022-07-29T07:23:25;99570.47;;;29.16;36.96
34712;BME280;20941;42.408;25.634;2022-07-29T07:25:51;99548.69;;;29.08;37.15
34712;BME280;20941;42.408;25.634;2022-07-29T07:28:16;99577.88;;;29.17;37.66
34712;BME280;20941;42.408;25.634;2022-07-29T07:30:42;99563.16;;;29.08;36.99
34712;BME280;20941;42.408;25.634;2022-07-29T07:33:07;99563.28;;;29.24;36.85
34712;BME280;20941;42.408;25.634;2022-07-29T07:35:33;99572.75;;;29.28;36.91
34712;BME280;20941;42.408;25.634;2022-07-29T07:37:58;99553.13;;;29.16;36.41
34712;BME280;20941;42.408;25.634;2022-07-29T07:40:24;99562.94;;;29.22;36.41
34712;BME280;20941;42.408;25.634;2022-07-29T07:42:50;99562.75;;;29.33;36.42
34712;BME280;20941;42.408;25.634;2022-07-29T07:45:16;99566.00;;;29.39;36.03
34712;BME280;20941;42.408;25.634;2022-07-29T07:47:42;99564.22;;;29.45;37.10
34712;BME280;20941;42.408;25.634;2022-07-29T07:50:09;99531.00;;;29.29;36.95
34712;BME280;20941;42.408;25.634;2022-07-29T07:52:45;99570.69;;;29.53;37.24
34712;BME280;20941;42.408;25.634;2022-07-29T07:55:11;99569.78;;;29.59;37.40
34712;BME280;20941;42.408;25.634;2022-07-29T07:57:37;99567.25;;;29.61;37.20
34712;BME280;20941;42.408;25.634;2022-07-29T08:00:03;99563.97;;;29.59;37.16
34712;BME280;20941;42.408;25.634;2022-07-29T08:02:29;99569.78;;;29.59;37.19
34712;BME280;20941;42.408;25.634;2022-07-29T08:04:54;99559.63;;;29.71;37.24
34712;BME280;20941;42.408;25.634;2022-07-29T08:07:19;99531.66;;;29.61;37.09
34712;BME280;20941;42.408;25.634;2022-07-29T08:09:45;99557.25;;;29.86;36.86
34712;BME280;20941;42.408;25.634;2022-07-29T08:12:11;99557.16;;;29.93;36.37
34712;BME280;20941;42.408;25.634;2022-07-29T08:14:36;99571.13;;;29.99;36.74
34712;BME280;20941;42.408;25.634;2022-07-29T08:17:02;99558.94;;;30.07;36.23
34712;BME280;20941;42.408;25.634;2022-07-29T08:19:27;99561.03;;;30.07;36.81
34712;BME280;20941;42.408;25.634;2022-07-29T08:21:53;99558.88;;;30.11;36.06
34712;BME280;20941;42.408;25.634;2022-07-29T08:24:19;99549.13;;;30.01;37.09
34712;BME280;20941;42.408;25.634;2022-07-29T08:27:03;99542.66;;;30.14;36.87
34712;BME280;20941;42.408;25.634;2022-07-29T08:29:28;99512.53;;;29.87;36.29
34712;BME280;20941;42.408;25.634;2022-07-29T08:31:54;99536.41;;;30.15;36.60
34712;BME280;20941;42.408;25.634;2022-07-29T08:34:19;99558.28;;;30.40;37.03
34712;BME280;20941;42.408;25.634;2022-07-29T08:36:46;99541.09;;;30.29;36.21
34712;BME280;20941;42.408;25.634;2022-07-29T08:39:11;99535.22;;;30.33;35.72
34712;BME280;20941;42.408;25.634;2022-07-29T08:41:37;99543.16;;;30.29;36.91
34712;BME280;20941;42.408;25.634;2022-07-29T08:44:03;99551.47;;;30.47;36.46
34712;BME280;20941;42.408;25.634;2022-07-29T08:46:29;99548.91;;;30.52;36.21
34712;BME280;20941;42.408;25.634;2022-07-29T08:48:55;99538.75;;;30.61;35.82
34712;BME280;20941;42.408;25.634;2022-07-29T08:51:21;99540.06;;;30.76;35.67
34712;BME280;20941;42.408;25.634;2022-07-29T08:53:48;99534.44;;;30.69;35.88
34712;BME280;20941;42.408;25.634;2022-07-29T08:56:15;99535.91;;;30.77;36.08
34712;BME280;20941;42.408;25.634;2022-07-29T08:58:44;99526.28;;;30.64;35.58
34712;BME280;20941;42.408;25.634;2022-07-29T09:01:12;99529.72;;;30.75;35.53
34712;BME280;20941;42.408;25.634;2022-07-29T09:03:39;99531.19;;;30.83;35.43
34712;BME280;20941;42.408;25.634;2022-07-29T09:06:05;99530.47;;;30.96;35.50
34712;BME280;20941;42.408;25.634;2022-07-29T09:08:31;99508.19;;;30.93;34.85
34712;BME280;20941;42.408;25.634;2022-07-29T09:10:58;99530.09;;;30.94;35.39
34712;BME280;20941;42.408;25.634;2022-07-29T09:13:25;99490.19;;;30.81;35.62
34712;BME280;20941;42.408;25.634;2022-07-29T09:15:51;99526.09;;;31.08;35.16
34712;BME280;20941;42.408;25.634;2022-07-29T09:18:42;99520.78;;;31.02;35.63
34712;BME280;20941;42.408;25.634;2022-07-29T09:21:15;99516.50;;;30.91;35.56
34712;BME280;20941;42.408;25.634;2022-07-29T09:24:09;99523.09;;;31.11;35.93
34712;BME280;20941;42.408;25.634;2022-07-29T09:26:38;99524.34;;;31.10;35.06
34712;BME280;20941;42.408;25.634;2022-07-29T09:29:10;99508.47;;;31.15;35.08
34712;BME280;20941;42.408;25.634;2022-07-29T09:31:38;99498.09;;;31.30;35.43
34712;BME280;20941;42.408;25.634;2022-07-29T09:34:04;99503.25;;;31.56;35.15
34712;BME280;20941;42.408;25.634;2022-07-29T09:36:30;99497.19;;;31.66;34.64
34712;BME280;20941;42.408;25.634;2022-07-29T09:39:00;99501.56;;;31.88;34.64
34712;BME280;20941;42.408;25.634;2022-07-29T09:41:27;99500.13;;;31.79;34.11
34712;BME280;20941;42.408;25.634;2022-07-29T09:43:57;99490.81;;;31.72;34.35
34712;BME280;20941;42.408;25.634;2022-07-29T09:46:24;99510.59;;;31.77;34.58
34712;BME280;20941;42.408;25.634;2022-07-29T09:49:09;99511.19;;;31.84;34.20
34712;BME280;20941;42.408;25.634;2022-07-29T09:51:35;99495.25;;;31.76;34.07
34712;BME280;20941;42.408;25.634;2022-07-29T09:54:01;99492.16;;;31.67;33.91
34712;BME280;20941;42.408;25.634;2022-07-29T09:56:43;99495.44;;;31.98;33.60
34712;BME280;20941;42.408;25.634;2022-07-29T09:59:09;99497.47;;;32.14;33.30
34712;BME280;20941;42.408;25.634;2022-07-29T10:01:36;99461.56;;;31.92;32.97
34712;BME280;20941;42.408;25.634;2022-07-29T10:04:02;99489.31;;;32.09;32.68
34712;BME280;20941;42.408;25.634;2022-07-29T10:06:28;99486.41;;;32.09;33.07
34712;BME280;20941;42.408;25.634;2022-07-29T10:09:06;99496.34;;;32.25;32.91
34712;BME280;20941;42.408;25.634;2022-07-29T10:11:31;99489.25;;;32.26;32.64
34712;BME280;20941;42.408;25.634;2022-07-29T10:13:57;99480.63;;;32.22;32.36
34712;BME280;20941;42.408;25.634;2022-07-29T10:16:23;99487.75;;;32.34;32.33
34712;BME280;20941;42.408;25.634;2022-07-29T10:18:49;99475.16;;;32.37;32.97
34712;BME280;20941;42.408;25.634;2022-07-29T10:21:16;99419.13;;;32.07;32.85
34712;BME280;20941;42.408;25.634;2022-07-29T10:23:42;99474.72;;;32.39;32.70
34712;BME280;20941;42.408;25.634;2022-07-29T10:26:10;99480.75;;;32.44;32.69
34712;BME280;20941;42.408;25.634;2022-07-29T10:28:35;99437.34;;;32.24;32.10
34712;BME280;20941;42.408;25.634;2022-07-29T10:31:04;99450.97;;;32.40;32.52
34712;BME280;20941;42.408;25.634;2022-07-29T10:44:24;99464.25;;;32.41;32.93
34712;BME280;20941;42.408;25.634;2022-07-29T10:46:51;99443.28;;;32.46;32.54
34712;BME280;20941;42.408;25.634;2022-07-29T10:49:20;99461.66;;;32.69;32.14
34712;BME280;20941;42.408;25.634;2022-07-29T10:59:46;99454.13;;;32.85;31.33
34712;BME280;20941;42.408;25.634;2022-07-29T11:07:22;99452.38;;;33.00;31.71
34712;BME280;20941;42.408;25.634;2022-07-29T11:15:25;99448.44;;;32.94;30.39
34712;BME280;20941;42.408;25.634;2022-07-29T11:23:00;99427.25;;;32.80;30.85
34712;BME280;20941;42.408;25.634;2022-07-29T11:25:26;99431.44;;;32.79;31.16
34712;BME280;20941;42.408;25.634;2022-07-29T11:27:53;99440.38;;;32.98;31.04
34712;BME280;20941;42.408;25.634;2022-07-29T11:30:19;99425.44;;;32.96;30.98
34712;BME280;20941;42.408;25.634;2022-07-29T11:32:45;99417.06;;;33.11;31.25
34712;BME280;20941;42.408;25.634;2022-07-29T11:35:19;99400.94;;;33.19;30.44
34712;BME280;20941;42.408;25.634;2022-07-29T11:37:47;99420.72;;;33.37;30.16
34712;BME280;20941;42.408;25.634;2022-07-29T11:40:33;99419.69;;;33.31;29.95
34712;BME280;20941;42.408;25.634;2022-07-29T11:42:58;99426.22;;;33.22;30.41
34712;BME280;20941;42.408;25.634;2022-07-29T11:45:25;99401.72;;;33.33;30.87
34712;BME280;20941;42.408;25.634;2022-07-29T11:47:58;99392.06;;;33.58;29.85
34712;BME280;20941;42.408;25.634;2022-07-29T11:50:35;99382.69;;;33.63;29.17
34712;BME280;20941;42.408;25.634;2022-07-29T11:53:03;99344.59;;;33.35;29.88
34712;BME280;20941;42.408;25.634;2022-07-29T11:55:28;99401.97;;;33.83;29.75
34712;BME280;20941;42.408;25.634;2022-07-29T11:57:58;99377.88;;;33.69;29.56
34712;BME280;20941;42.408;25.634;2022-07-29T12:00:33;99368.50;;;33.74;29.53
34712;BME280;20941;42.408;25.634;2022-07-29T12:03:02;99362.50;;;33.91;29.27
34712;BME280;20941;42.408;25.634;2022-07-29T12:05:46;99374.84;;;33.95;29.64
34712;BME280;20941;42.408;25.634;2022-07-29T12:08:14;99382.88;;;34.13;29.51
34712;BME280;20941;42.408;25.634;2022-07-29T12:10:42;99394.75;;;34.19;29.38
34712;BME280;20941;42.408;25.634;2022-07-29T12:13:08;99389.22;;;34.21;29.96
34712;BME280;20941;42.408;25.634;2022-07-29T12:15:34;99380.28;;;34.47;29.10
34712;BME280;20941;42.408;25.634;2022-07-29T12:18:09;99376.06;;;34.48;29.27
34712;BME280;20941;42.408;25.634;2022-07-29T12:20:35;99378.25;;;34.25;29.37
34712;BME280;20941;42.408;25.634;2022-07-29T12:23:05;99369.91;;;34.14;29.62
34712;BME280;20941;42.408;25.634;2022-07-29T12:25:33;99359.34;;;34.07;29.80
34712;BME280;20941;42.408;25.634;2022-07-29T12:28:00;99377.75;;;33.95;30.13
34712;BME280;20941;42.408;25.634;2022-07-29T12:30:44;99365.84;;;34.12;30.58
34712;BME280;20941;42.408;25.634;2022-07-29T12:35:42;99350.06;;;34.31;29.36
34712;BME280;20941;42.408;25.634;2022-07-29T12:38:10;99337.41;;;34.34;30.06
34712;BME280;20941;42.408;25.634;2022-07-29T12:40:36;99358.59;;;34.66;29.47
34712;BME280;20941;42.408;25.634;2022-07-29T12:43:09;99344.66;;;34.61;29.35
34712;BME280;20941;42.408;25.634;2022-07-29T12:45:37;99346.72;;;34.51;29.09
34712;BME280;20941;42.408;25.634;2022-07-29T12:48:03;99311.72;;;34.11;29.64
34712;BME280;20941;42.408;25.634;2022-07-29T12:50:29;99328.94;;;34.18;29.65
34712;BME280;20941;42.408;25.634;2022-07-29T12:53:08;99349.47;;;34.46;28.92
34712;BME280;20941;42.408;25.634;2022-07-29T12:55:55;99316.56;;;34.14;29.09
34712;BME280;20941;42.408;25.634;2022-07-29T12:58:41;99336.16;;;34.35;29.24
34712;BME280;20941;42.408;25.634;2022-07-29T13:06:44;99319.34;;;34.67;29.15
34712;BME280;20941;42.408;25.634;2022-07-29T13:09:18;99315.06;;;35.00;28.52
34712;BME280;20941;42.408;25.634;2022-07-29T13:11:46;99317.31;;;35.24;28.24
34712;BME280;20941;42.408;25.634;2022-07-29T13:14:29;99291.19;;;35.29;28.47
34712;BME280;20941;42.408;25.634;2022-07-29T13:19:36;99304.38;;;35.95;27.04
34712;BME280;20941;42.408;25.634;2022-07-29T13:22:02;99308.91;;;36.06;26.89
34712;BME280;20941;42.408;25.634;2022-07-29T13:24:28;99281.16;;;35.82;27.27
34712;BME280;20941;42.408;25.634;2022-07-29T13:26:53;99284.22;;;35.97;26.89
34712;BME280;20941;42.408;25.634;2022-07-29T13:29:18;99299.69;;;36.22;27.33
34712;BME280;20941;42.408;25.634;2022-07-29T13:31:44;99280.63;;;36.36;26.68
34712;BME280;20941;42.408;25.634;2022-07-29T13:34:09;99296.16;;;36.76;26.38
34712;BME280;20941;42.408;25.634;2022-07-29T13:36:35;99299.72;;;37.19;25.17
34712;BME280;20941;42.408;25.634;2022-07-29T13:39:01;99284.97;;;37.14;25.64
34712;BME280;20941;42.408;25.634;2022-07-29T13:41:28;99293.09;;;37.34;24.84
34712;BME280;20941;42.408;25.634;2022-07-29T13:43:53;99278.38;;;37.58;24.72
34712;BME280;20941;42.408;25.634;2022-07-29T13:46:19;99298.84;;;37.82;24.62
34712;BME280;20941;42.408;25.634;2022-07-29T13:48:44;99302.84;;;38.30;24.15
34712;BME280;20941;42.408;25.634;2022-07-29T13:51:11;99287.94;;;39.63;22.61
34712;BME280;20941;42.408;25.634;2022-07-29T13:53:37;99288.88;;;40.88;21.25
34712;BME280;20941;42.408;25.634;2022-07-29T13:56:03;99253.13;;;41.41;20.78
34712;BME280;20941;42.408;25.634;2022-07-29T13:58:31;99281.56;;;42.80;19.71
34712;BME280;20941;42.408;25.634;2022-07-29T14:00:58;99274.56;;;43.78;18.79
34712;BME280;20941;42.408;25.634;2022-07-29T14:03:23;99253.06;;;42.77;19.12
34712;BME280;20941;42.408;25.634;2022-07-29T14:05:49;99283.03;;;42.05;19.93
34712;BME280;20941;42.408;25.634;2022-07-29T14:08:15;99278.94;;;42.25;20.11
34712;BME280;20941;42.408;25.634;2022-07-29T14:10:40;99251.84;;;43.50;18.62
34712;BME280;20941;42.408;25.634;2022-07-29T14:13:16;99266.88;;;45.37;17.32
34712;BME280;20941;42.408;25.634;2022-07-29T14:15:44;99273.75;;;45.45;17.25
34712;BME280;20941;42.408;25.634;2022-07-29T14:18:09;99278.25;;;45.71;16.69
34712;BME280;20941;42.408;25.634;2022-07-29T14:20:35;99275.59;;;45.10;17.26
34712;BME280;20941;42.408;25.634;2022-07-29T14:23:01;99270.13;;;44.21;18.00
34712;BME280;20941;42.408;25.634;2022-07-29T14:25:27;99283.19;;;42.58;19.33
34712;BME280;20941;42.408;25.634;2022-07-29T14:27:52;99261.53;;;40.82;21.01
34712;BME280;20941;42.408;25.634;2022-07-29T14:30:19;99274.72;;;39.73;22.22
34712;BME280;20941;42.408;25.634;2022-07-29T14:32:45;99259.47;;;39.22;22.45
34712;BME280;20941;42.408;25.634;2022-07-29T14:35:10;99276.16;;;40.59;21.58
34712;BME280;20941;42.408;25.634;2022-07-29T14:37:36;99277.88;;;41.72;20.49
34712;BME280;20941;42.408;25.634;2022-07-29T14:40:03;99280.00;;;42.39;20.13
34712;BME280;20941;42.408;25.634;2022-07-29T14:42:29;99266.16;;;43.82;18.69
34712;BME280;20941;42.408;25.634;2022-07-29T14:44:57;99271.06;;;45.28;17.39
34712;BME280;20941;42.408;25.634;2022-07-29T14:47:23;99264.00;;;46.16;16.39
34712;BME280;20941;42.408;25.634;2022-07-29T14:49:49;99258.13;;;45.45;17.22
34712;BME280;20941;42.408;25.634;2022-07-29T14:52:14;99276.19;;;45.66;16.83
34712;BME280;20941;42.408;25.634;2022-07-29T14:54:40;99263.78;;;46.27;16.31
34712;BME280;20941;42.408;25.634;2022-07-29T14:57:05;99268.88;;;46.59;15.96
34712;BME280;20941;42.408;25.634;2022-07-29T14:59:31;99255.06;;;47.92;15.49
34712;BME280;20941;42.408;25.634;2022-07-29T15:01:57;99260.56;;;47.32;15.31
34712;BME280;20941;42.408;25.634;2022-07-29T15:04:22;99275.69;;;45.43;16.95
34712;BME280;20941;42.408;25.634;2022-07-29T15:06:48;99272.63;;;45.48;16.77
34712;BME280;20941;42.408;25.634;2022-07-29T15:09:13;99248.00;;;44.52;17.56
34712;BME280;20941;42.408;25.634;2022-07-29T15:11:39;99247.94;;;45.02;17.08
34712;BME280;20941;42.408;25.634;2022-07-29T15:14:05;99254.00;;;44.91;16.97
34712;BME280;20941;42.408;25.634;2022-07-29T15:16:31;99255.47;;;45.60;16.11
34712;BME280;20941;42.408;25.634;2022-07-29T15:18:56;99266.56;;;46.38;15.91
34712;BME280;20941;42.408;25.634;2022-07-29T15:21:23;99253.19;;;47.12;15.64
34712;BME280;20941;42.408;25.634;2022-07-29T15:23:49;99259.09;;;46.32;15.59
34712;BME280;20941;42.408;25.634;2022-07-29T15:26:14;99262.09;;;45.09;16.59
34712;BME280;20941;42.408;25.634;2022-07-29T15:28:40;99239.09;;;44.28;17.26
34712;BME280;20941;42.408;25.634;2022-07-29T15:31:05;99238.31;;;44.27;17.29
34712;BME280;20941;42.408;25.634;2022-07-29T15:33:31;99237.00;;;43.98;17.19
34712;BME280;20941;42.408;25.634;2022-07-29T15:35:56;99268.84;;;44.16;17.56
34712;BME280;20941;42.408;25.634;2022-07-29T15:38:22;99242.06;;;44.52;17.02
34712;BME280;20941;42.408;25.634;2022-07-29T15:40:47;99257.97;;;44.24;17.32
34712;BME280;20941;42.408;25.634;2022-07-29T15:43:13;99264.06;;;44.63;17.01
34712;BME280;20941;42.408;25.634;2022-07-29T15:45:40;99252.69;;;45.30;16.53
34712;BME280;20941;42.408;25.634;2022-07-29T15:48:08;99259.81;;;45.40;16.41
34712;BME280;20941;42.408;25.634;2022-07-29T15:50:33;99256.44;;;44.18;17.24
34712;BME280;20941;42.408;25.634;2022-07-29T15:52:59;99265.81;;;44.22;16.85
34712;BME280;20941;42.408;25.634;2022-07-29T15:55:25;99273.81;;;43.24;17.50
34712;BME280;20941;42.408;25.634;2022-07-29T15:57:51;99272.78;;;42.12;18.58
34712;BME280;20941;42.408;25.634;2022-07-29T16:00:16;99261.63;;;42.86;17.96
34712;BME280;20941;42.408;25.634;2022-07-29T16:02:42;99276.53;;;42.35;18.20
34712;BME280;20941;42.408;25.634;2022-07-29T16:05:08;99288.19;;;42.97;18.17
34712;BME280;20941;42.408;25.634;2022-07-29T16:07:34;99263.81;;;42.69;17.85
34712;BME280;20941;42.408;25.634;2022-07-29T16:09:59;99259.06;;;42.43;18.31
34712;BME280;20941;42.408;25.634;2022-07-29T16:12:25;99276.25;;;41.59;18.80
34712;BME280;20941;42.408;25.634;2022-07-29T16:14:50;99290.25;;;41.98;18.69
34712;BME280;20941;42.408;25.634;2022-07-29T16:17:16;99293.34;;;41.32;19.27
34712;BME280;20941;42.408;25.634;2022-07-29T16:19:43;99303.84;;;40.79;19.64
34712;BME280;20941;42.408;25.634;2022-07-29T16:22:08;99301.09;;;41.24;19.40
34712;BME280;20941;42.408;25.634;2022-07-29T16:24:34;99292.09;;;41.56;19.19
34712;BME280;20941;42.408;25.634;2022-07-29T16:26:59;99294.38;;;41.18;19.61
34712;BME280;20941;42.408;25.634;2022-07-29T16:29:24;99309.19;;;40.37;19.91
34712;BME280;20941;42.408;25.634;2022-07-29T16:31:50;99290.38;;;39.91;20.67
34712;BME280;20941;42.408;25.634;2022-07-29T16:34:17;99303.09;;;40.08;20.62
34712;BME280;20941;42.408;25.634;2022-07-29T16:36:42;99270.63;;;39.97;20.58
34712;BME280;20941;42.408;25.634;2022-07-29T16:39:08;99268.50;;;39.19;21.45
34712;BME280;20941;42.408;25.634;2022-07-29T16:41:35;99292.69;;;38.87;21.29
34712;BME280;20941;42.408;25.634;2022-07-29T16:44:00;99310.72;;;38.39;22.10
34712;BME280;20941;42.408;25.634;2022-07-29T16:46:26;99318.84;;;37.99;22.77
34712;BME280;20941;42.408;25.634;2022-07-29T16:48:51;99313.97;;;37.66;22.86
34712;BME280;20941;42.408;25.634;2022-07-29T16:51:17;99302.03;;;36.76;24.29
34712;BME280;20941;42.408;25.634;2022-07-29T16:53:42;99323.94;;;35.71;25.48
34712;BME280;20941;42.408;25.634;2022-07-29T16:56:09;99312.28;;;34.87;26.37
34712;BME280;20941;42.408;25.634;2022-07-29T16:58:35;99317.69;;;34.48;27.05
34712;BME280;20941;42.408;25.634;2022-07-29T17:01:00;99320.03;;;33.90;27.95
34712;BME280;20941;42.408;25.634;2022-07-29T17:03:26;99335.06;;;33.22;28.93
34712;BME280;20941;42.408;25.634;2022-07-29T17:05:51;99309.38;;;32.72;29.65
34712;BME280;20941;42.408;25.634;2022-07-29T17:08:17;99302.09;;;32.55;29.80
34712;BME280;20941;42.408;25.634;2022-07-29T17:10:42;99331.09;;;32.45;30.28
34712;BME280;20941;42.408;25.634;2022-07-29T17:13:08;99312.81;;;32.06;30.25
34712;BME280;20941;42.408;25.634;2022-07-29T17:15:33;99302.44;;;31.79;30.90
34712;BME280;20941;42.408;25.634;2022-07-29T17:17:59;99312.03;;;31.50;31.27
34712;BME280;20941;42.408;25.634;2022-07-29T17:20:26;99339.81;;;31.51;32.00
34712;BME280;20941;42.408;25.634;2022-07-29T17:22:51;99302.63;;;31.17;32.07
34712;BME280;20941;42.408;25.634;2022-07-29T17:25:17;99293.16;;;30.83;32.44
34712;BME280;20941;42.408;25.634;2022-07-29T17:27:42;99337.97;;;30.99;32.73
34712;BME280;20941;42.408;25.634;2022-07-29T17:30:08;99332.38;;;30.75;32.74
34712;BME280;20941;42.408;25.634;2022-07-29T17:32:34;99359.50;;;30.68;33.01
34712;BME280;20941;42.408;25.634;2022-07-29T17:35:06;99367.38;;;30.68;32.75
34712;BME280;20941;42.408;25.634;2022-07-29T17:37:50;99335.81;;;30.37;33.32
34712;BME280;20941;42.408;25.634;2022-07-29T17:40:16;99349.94;;;30.18;33.65
34712;BME280;20941;42.408;25.634;2022-07-29T17:42:41;99365.16;;;30.22;34.09
34712;BME280;20941;42.408;25.634;2022-07-29T17:45:07;99349.38;;;30.07;33.72
34712;BME280;20941;42.408;25.634;2022-07-29T17:47:33;99388.25;;;30.09;34.14
34712;BME280;20941;42.408;25.634;2022-07-29T17:49:58;99348.50;;;29.70;34.42
34712;BME280;20941;42.408;25.634;2022-07-29T17:52:23;99391.22;;;29.86;34.62
34712;BME280;20941;42.408;25.634;2022-07-29T17:54:49;99363.91;;;29.67;34.30
34712;BME280;20941;42.408;25.634;2022-07-29T17:57:14;99347.75;;;29.49;34.46
34712;BME280;20941;42.408;25.634;2022-07-29T17:59:40;99345.25;;;29.27;34.85
34712;BME280;20941;42.408;25.634;2022-07-29T18:02:05;99387.25;;;29.39;34.92
34712;BME280;20941;42.408;25.634;2022-07-29T18:04:32;99376.66;;;29.29;35.57
34712;BME280;20941;42.408;25.634;2022-07-29T18:06:58;99413.75;;;29.38;35.57
34712;BME280;20941;42.408;25.634;2022-07-29T18:09:23;99382.56;;;29.02;35.74
34712;BME280;20941;42.408;25.634;2022-07-29T18:11:49;99426.91;;;29.19;35.51
34712;BME280;20941;42.408;25.634;2022-07-29T18:14:14;99432.44;;;29.09;36.11
34712;BME280;20941;42.408;25.634;2022-07-29T18:16:41;99407.66;;;28.85;36.03
34712;BME280;20941;42.408;25.634;2022-07-29T18:19:06;99421.31;;;28.84;36.29
34712;BME280;20941;42.408;25.634;2022-07-29T18:21:32;99418.25;;;28.67;36.82
34712;BME280;20941;42.408;25.634;2022-07-29T18:23:57;99405.28;;;28.52;37.11
34712;BME280;20941;42.408;25.634;2022-07-29T18:26:23;99360.59;;;28.06;37.54
34712;BME280;20941;42.408;25.634;2022-07-29T18:28:48;99452.84;;;28.51;37.27
34712;BME280;20941;42.408;25.634;2022-07-29T18:31:14;99442.72;;;28.36;37.85
34712;BME280;20941;42.408;25.634;2022-07-29T18:33:39;99420.00;;;28.07;38.09
34712;BME280;20941;42.408;25.634;2022-07-29T18:36:06;99413.56;;;27.92;38.46
34712;BME280;20941;42.408;25.634;2022-07-29T18:38:32;99439.13;;;27.93;38.61
34712;BME280;20941;42.408;25.634;2022-07-29T18:40:58;99442.59;;;27.81;38.73
34712;BME280;20941;42.408;25.634;2022-07-29T18:43:23;99422.19;;;27.64;38.96
34712;BME280;20941;42.408;25.634;2022-07-29T18:45:49;99464.06;;;27.80;39.27
34712;BME280;20941;42.408;25.634;2022-07-29T18:48:15;99453.09;;;27.67;39.40
34712;BME280;20941;42.408;25.634;2022-07-29T18:50:40;99470.81;;;27.69;39.12
34712;BME280;20941;42.408;25.634;2022-07-29T18:53:06;99457.69;;;27.61;39.41
34712;BME280;20941;42.408;25.634;2022-07-29T18:55:32;99444.69;;;27.46;39.41
34712;BME280;20941;42.408;25.634;2022-07-29T18:57:57;99471.84;;;27.52;39.98
34712;BME280;20941;42.408;25.634;2022-07-29T19:00:24;99475.09;;;27.54;39.73
34712;BME280;20941;42.408;25.634;2022-07-29T19:02:49;99453.00;;;27.36;40.11
34712;BME280;20941;42.408;25.634;2022-07-29T19:05:15;99495.44;;;27.47;40.17
34712;BME280;20941;42.408;25.634;2022-07-29T19:07:40;99467.13;;;27.27;39.94
34712;BME280;20941;42.408;25.634;2022-07-29T19:10:07;99477.78;;;27.34;40.20
34712;BME280;20941;42.408;25.634;2022-07-29T19:12:33;99471.31;;;27.19;40.22
34712;BME280;20941;42.408;25.634;2022-07-29T19:14:58;99493.03;;;27.31;40.18
34712;BME280;20941;42.408;25.634;2022-07-29T19:17:24;99495.13;;;27.30;40.44
34712;BME280;20941;42.408;25.634;2022-07-29T19:19:49;99497.25;;;27.26;40.58
34712;BME280;20941;42.408;25.634;2022-07-29T19:22:19;99449.34;;;26.87;40.54
34712;BME280;20941;42.408;25.634;2022-07-29T19:24:46;99492.44;;;27.09;41.00
34712;BME280;20941;42.408;25.634;2022-07-29T19:27:12;99447.78;;;26.79;40.84
34712;BME280;20941;42.408;25.634;2022-07-29T19:29:38;99465.03;;;26.86;40.94
34712;BME280;20941;42.408;25.634;2022-07-29T19:32:04;99469.97;;;26.82;41.10
34712;BME280;20941;42.408;25.634;2022-07-29T19:34:29;99486.47;;;26.85;41.28
34712;BME280;20941;42.408;25.634;2022-07-29T19:36:55;99461.03;;;26.65;41.13
34712;BME280;20941;42.408;25.634;2022-07-29T19:39:21;99506.66;;;26.85;41.38
34712;BME280;20941;42.408;25.634;2022-07-29T19:41:46;99495.59;;;26.72;41.55
34712;BME280;20941;42.408;25.634;2022-07-29T19:44:12;99459.09;;;26.48;41.77
34712;BME280;20941;42.408;25.634;2022-07-29T19:46:38;99507.13;;;26.76;41.51
34712;BME280;20941;42.408;25.634;2022-07-29T19:49:04;99445.53;;;26.45;41.74
34712;BME280;20941;42.408;25.634;2022-07-29T19:51:31;99502.59;;;26.71;41.55
34712;BME280;20941;42.408;25.634;2022-07-29T19:53:56;99489.88;;;26.65;41.52
34712;BME280;20941;42.408;25.634;2022-07-29T19:56:22;99499.72;;;26.71;41.59
34712;BME280;20941;42.408;25.634;2022-07-29T19:58:50;99477.59;;;26.54;41.84
34712;BME280;20941;42.408;25.634;2022-07-29T20:01:16;99494.41;;;26.66;41.98
34712;BME280;20941;42.408;25.634;2022-07-29T20:03:42;99463.22;;;26.47;42.15
34712;BME280;20941;42.408;25.634;2022-07-29T20:06:08;99468.56;;;26.48;42.19
34712;BME280;20941;42.408;25.634;2022-07-29T20:08:34;99489.91;;;26.62;42.11
34712;BME280;20941;42.408;25.634;2022-07-29T20:10:59;99488.28;;;26.57;42.11